aviador You're here:

PWAK Decoded Metar

WAKE ISLAND AIRF in _UNIDENTIFIED
Report Time2017-12-18 02:58:00
UTC Time2017-12-18 03:17:05
Flight Rules vfr VFR
Wind070° at 12 kt
W.Decomp.*RWY 10: 9.6 kt HW 7.2 kt LCW
W.Rank070° ranks 1
Current wind is below 070° avg. (12.6)
Visibility9999 m
Phenomena:N/A
Clouds:Few 027 Hf
Expected CloudBase > 2,400 ft AGL from Temp-Dew spread
CeilingNone
Temp29°C (ISA +14)
Dew Point23°C (70% RH)
Heat Index32.7°C
QNH1013 hPa
Density Alt1,991 ft
Elevation13 ft
Report Wrong Elevation
Raw Report
PWAK 180258Z AUTO 07012KT 9999 FEW027 29/23 A2992 RMK AO2 SLP138
57019=

Extra information for PWAK:More info

Metar Taf Metar & Taf Last 4 Metars F.Rules Stats Wind Profile Meteogram Temp Stats Airport Information Weather charts Add Link Nearby VenuesMetar ALERT Operation Metar Decoded Social comments